createdAt,value
2018-12-08T06:30:18.290Z,81.30
2018-12-08T06:32:46.852Z,80.35
2018-12-08T06:35:15.432Z,80.13
2018-12-08T06:37:43.995Z,78.95
2018-12-08T06:40:12.764Z,78.68
2018-12-08T06:42:41.410Z,78.51
2018-12-08T06:45:10.485Z,77.52
2018-12-08T06:47:39.264Z,76.68
2018-12-08T06:50:08.077Z,75.96
2018-12-08T06:52:36.713Z,76.08
2018-12-08T06:55:05.494Z,75.80
2018-12-08T06:57:34.046Z,75.49
2018-12-08T07:00:06.334Z,74.97
2018-12-08T07:02:34.984Z,75.16
2018-12-08T07:05:03.735Z,75.01
2018-12-08T07:07:32.339Z,75.44
2018-12-08T07:10:00.943Z,75.22
2018-12-08T07:12:29.595Z,74.97
2018-12-08T07:14:58.226Z,75.50
2018-12-08T07:17:26.781Z,75.14
2018-12-08T07:19:55.695Z,74.79
2018-12-08T07:22:24.412Z,75.39
2018-12-08T07:24:53.044Z,74.92
2018-12-08T07:27:21.742Z,74.36
2018-12-08T07:29:50.383Z,74.35
2018-12-08T07:32:19.010Z,74.34
2018-12-08T07:34:47.649Z,74.40
2018-12-08T07:37:16.333Z,74.13
2018-12-08T07:39:45.004Z,73.89
2018-12-08T07:42:13.702Z,73.42
2018-12-08T07:44:42.336Z,73.03
2018-12-08T07:47:11.043Z,72.39
2018-12-08T07:49:39.856Z,72.40
2018-12-08T07:52:08.474Z,71.38
2018-12-08T07:54:37.112Z,71.08
2018-12-08T07:57:05.768Z,70.18
2018-12-08T07:59:34.389Z,70.27
2018-12-08T08:02:03.056Z,69.37
2018-12-08T08:04:31.729Z,69.23
2018-12-08T08:07:00.400Z,70.27
2018-12-08T08:09:29.034Z,69.02
2018-12-08T08:11:57.660Z,69.50
2018-12-08T08:14:26.371Z,68.80
2018-12-08T08:16:55.002Z,69.67
2018-12-08T08:19:23.690Z,69.05
2018-12-08T08:21:52.407Z,68.39
2018-12-08T08:24:21.021Z,68.22
2018-12-08T08:26:49.662Z,68.12
2018-12-08T08:29:18.278Z,67.72
2018-12-08T08:31:47.045Z,67.41
2018-12-08T08:34:15.677Z,67.55
2018-12-08T08:36:44.275Z,67.21
2018-12-08T08:39:13.005Z,66.63
2018-12-08T08:41:41.573Z,66.84
2018-12-08T08:44:10.178Z,66.29
2018-12-08T08:46:38.871Z,66.12
2018-12-08T08:49:07.548Z,65.90
2018-12-08T08:53:07.106Z,65.04
2018-12-08T08:55:35.746Z,66.19
2018-12-08T08:58:04.406Z,65.99
2018-12-08T09:00:33.055Z,65.78
2018-12-08T09:03:01.722Z,64.64
2018-12-08T09:05:30.406Z,64.30
2018-12-08T09:07:59.004Z,65.50
2018-12-08T09:10:27.642Z,64.82
2018-12-08T09:12:56.528Z,64.51
2018-12-08T09:15:25.190Z,64.20
2018-12-08T09:17:53.940Z,63.59
2018-12-08T09:20:22.532Z,63.00
2018-12-08T09:22:51.233Z,61.98
2018-12-08T09:25:19.857Z,61.47
2018-12-08T09:27:49.292Z,61.53
2018-12-08T09:30:18.017Z,61.99
2018-12-08T09:32:46.605Z,61.02
2018-12-08T09:35:15.341Z,61.47
2018-12-08T09:37:44.013Z,61.22
2018-12-08T09:40:12.627Z,60.77
2018-12-08T09:42:44.576Z,61.32
2018-12-08T09:45:13.281Z,61.84
2018-12-08T09:47:41.990Z,61.32
2018-12-08T09:50:10.659Z,61.20
2018-12-08T09:52:39.295Z,60.99
2018-12-08T09:55:07.993Z,60.87
2018-12-08T09:57:36.618Z,59.87
2018-12-08T10:00:09.056Z,60.02
2018-12-08T10:02:37.611Z,60.09
2018-12-08T10:05:06.609Z,60.19
2018-12-08T10:07:35.232Z,59.77
2018-12-08T10:10:04.254Z,60.95
2018-12-08T10:12:32.828Z,61.26
2018-12-08T10:15:01.666Z,60.69
2018-12-08T10:17:30.234Z,60.66
2018-12-08T10:19:58.925Z,61.59
2018-12-08T10:22:28.019Z,61.00
2018-12-08T10:24:56.713Z,61.90
2018-12-08T10:27:25.295Z,61.55
2018-12-08T10:29:53.981Z,62.17
2018-12-08T10:32:22.732Z,61.01
2018-12-08T10:34:51.462Z,60.81
2018-12-08T10:37:20.242Z,61.02
2018-12-08T10:39:49.020Z,60.91
2018-12-08T10:42:17.629Z,60.84
2018-12-08T10:44:46.287Z,60.39
2018-12-08T10:47:14.839Z,60.53
2018-12-08T10:49:43.584Z,60.80
2018-12-08T10:52:12.185Z,61.85
2018-12-08T10:54:40.750Z,62.07
2018-12-08T10:57:09.430Z,62.01
2018-12-08T10:59:38.092Z,61.09
2018-12-08T11:02:10.837Z,61.28
2018-12-08T11:04:39.895Z,61.65
2018-12-08T11:07:08.683Z,61.74
2018-12-08T11:09:37.302Z,61.80
2018-12-08T11:12:05.869Z,62.47
2018-12-08T11:14:34.497Z,62.10
2018-12-08T11:17:03.110Z,61.24
2018-12-08T11:19:31.701Z,61.60
2018-12-08T11:22:00.343Z,62.78
2018-12-08T11:24:28.971Z,61.92
2018-12-08T11:26:57.557Z,61.64
2018-12-08T11:29:26.216Z,61.45
2018-12-08T11:31:54.820Z,60.93
2018-12-08T11:34:23.583Z,60.74
2018-12-08T11:36:52.225Z,61.14
2018-12-08T11:39:20.827Z,60.44
2018-12-08T11:41:49.670Z,60.60
2018-12-08T11:44:18.610Z,60.17
2018-12-08T11:46:47.601Z,60.52
2018-12-08T11:49:16.233Z,59.77
2018-12-08T11:51:44.856Z,59.39
2018-12-08T11:54:13.733Z,58.62
2018-12-08T11:56:42.411Z,59.21
2018-12-08T11:59:11.121Z,59.33
2018-12-08T12:01:39.775Z,58.40
2018-12-08T12:04:08.476Z,58.42
2018-12-08T12:06:37.154Z,57.84
2018-12-08T12:09:07.935Z,57.93
2018-12-08T12:11:37.075Z,57.93
2018-12-08T12:14:05.672Z,57.90
2018-12-08T12:16:34.286Z,58.08
2018-12-08T12:19:02.886Z,58.18
2018-12-08T12:21:31.534Z,57.67
2018-12-08T12:24:00.226Z,57.85
2018-12-08T12:26:28.917Z,57.04
2018-12-08T12:28:57.853Z,57.85
2018-12-08T12:31:26.505Z,58.12
2018-12-08T12:33:55.103Z,58.52
2018-12-08T12:36:23.757Z,58.25
2018-12-08T12:38:52.342Z,58.73
2018-12-08T12:41:21.025Z,57.81
2018-12-08T12:43:49.638Z,57.81
2018-12-08T12:46:18.267Z,57.66
2018-12-08T12:48:46.931Z,58.14
2018-12-08T12:51:15.555Z,58.60
2018-12-08T12:53:44.141Z,58.52
2018-12-08T12:56:12.762Z,59.59
2018-12-08T12:58:41.410Z,59.47
2018-12-08T13:01:10.970Z,59.15
2018-12-08T13:03:39.623Z,59.05
2018-12-08T13:06:08.185Z,59.11
2018-12-08T13:08:36.757Z,59.09
2018-12-08T13:11:05.327Z,59.71
2018-12-08T13:13:33.936Z,60.17
2018-12-08T13:16:02.588Z,59.96
2018-12-08T13:18:31.169Z,60.63
2018-12-08T13:20:59.785Z,60.68
2018-12-08T13:23:28.379Z,61.00
2018-12-08T13:25:57.013Z,61.05
2018-12-08T13:28:25.658Z,60.53
2018-12-08T13:30:54.361Z,61.17
2018-12-08T13:33:22.943Z,61.49
2018-12-08T13:35:53.303Z,61.41
2018-12-08T13:38:23.411Z,62.52
2018-12-08T13:40:52.403Z,62.16
2018-12-08T13:43:20.977Z,61.99
2018-12-08T13:45:49.615Z,62.11
2018-12-08T13:48:20.229Z,62.06
2018-12-08T13:50:49.062Z,62.36
2018-12-08T13:53:17.878Z,62.65
2018-12-08T13:55:46.470Z,62.31
2018-12-08T13:58:15.033Z,63.89
2018-12-08T14:00:43.688Z,63.70
2018-12-08T14:03:12.302Z,64.02
2018-12-08T14:05:41.043Z,64.00
2018-12-08T14:08:09.603Z,64.17
2018-12-08T14:10:38.209Z,64.57
2018-12-08T14:13:06.852Z,65.00
2018-12-08T14:15:35.446Z,64.68
2018-12-08T14:18:04.210Z,64.91
2018-12-08T14:20:34.302Z,65.06
2018-12-08T14:23:02.954Z,65.56
2018-12-08T14:25:33.512Z,65.83
2018-12-08T14:28:02.520Z,65.64
2018-12-08T14:30:31.095Z,65.73
2018-12-08T14:32:59.710Z,65.98
2018-12-08T14:35:28.332Z,66.76
2018-12-08T14:37:57.005Z,67.13
2018-12-08T14:40:25.680Z,67.47
2018-12-08T14:42:54.276Z,67.77
2018-12-08T14:45:22.921Z,68.26
2018-12-08T14:47:51.569Z,67.42
2018-12-08T14:50:21.316Z,68.36
2018-12-08T14:52:49.903Z,69.42
2018-12-08T14:55:18.530Z,70.07
2018-12-08T14:57:47.270Z,70.83
2018-12-08T15:00:16.095Z,70.48
2018-12-08T15:02:44.723Z,70.45
2018-12-08T15:05:13.577Z,71.33
2018-12-08T15:07:42.246Z,71.61
2018-12-08T15:10:12.316Z,72.16
2018-12-08T15:12:41.079Z,71.84
2018-12-08T15:15:10.971Z,72.68
2018-12-08T15:17:39.650Z,71.12
2018-12-08T15:20:09.490Z,71.93
2018-12-08T15:22:39.456Z,72.10
2018-12-08T15:25:09.961Z,71.79
2018-12-08T15:27:39.868Z,71.46
2018-12-08T15:30:11.634Z,71.98
2018-12-08T15:32:41.367Z,72.34
2018-12-08T15:35:11.704Z,72.11
2018-12-08T15:37:43.045Z,71.86
2018-12-08T15:40:12.184Z,72.87
2018-12-08T15:42:40.898Z,71.33
2018-12-08T15:45:11.624Z,71.71
2018-12-08T15:47:40.393Z,71.17
2018-12-08T15:50:10.771Z,71.48
2018-12-08T15:52:39.397Z,71.65
2018-12-08T15:55:08.210Z,72.04
2018-12-08T15:57:36.810Z,71.14
2018-12-08T16:00:12.370Z,71.73
2018-12-08T16:02:41.033Z,72.71
2018-12-08T16:05:10.273Z,72.40
2018-12-08T16:07:38.959Z,72.78
2018-12-08T16:10:08.653Z,72.28
2018-12-08T16:12:37.400Z,72.11
2018-12-08T16:15:07.727Z,72.08
2018-12-08T16:17:36.359Z,72.43
2018-12-08T16:20:07.030Z,72.81
2018-12-08T16:22:35.673Z,73.00
2018-12-08T16:25:04.545Z,73.52
2018-12-08T16:27:33.217Z,71.98
2018-12-08T16:30:03.594Z,72.69
2018-12-08T16:32:32.463Z,71.32
2018-12-08T16:35:01.122Z,71.33
2018-12-08T16:37:30.143Z,70.27
2018-12-08T16:39:58.864Z,69.93
2018-12-08T16:42:28.137Z,69.83
2018-12-08T16:44:56.743Z,69.54
2018-12-08T16:47:25.394Z,70.04
2018-12-08T16:49:54.014Z,70.39
2018-12-08T16:52:22.687Z,70.44
2018-12-08T16:54:51.275Z,70.00
2018-12-08T16:57:19.892Z,68.91
2018-12-08T16:59:48.506Z,68.17
2018-12-08T17:02:17.497Z,68.98
2018-12-08T17:04:46.153Z,69.91
2018-12-08T17:07:16.325Z,71.95
2018-12-08T17:09:45.248Z,71.32
2018-12-08T17:12:14.016Z,71.47
2018-12-08T17:14:42.609Z,71.84
2018-12-08T17:17:11.219Z,71.50
2018-12-08T17:19:39.913Z,72.15
2018-12-08T17:22:08.590Z,72.88
2018-12-08T17:24:37.325Z,73.08
2018-12-08T17:27:06.069Z,73.02
2018-12-08T17:29:34.745Z,73.09
2018-12-08T17:32:03.382Z,73.46
2018-12-08T17:36:58.234Z,73.25
2018-12-08T17:39:27.123Z,73.78
2018-12-08T17:41:55.747Z,74.25
2018-12-08T17:44:24.647Z,73.56
2018-12-08T17:46:53.532Z,72.87
2018-12-08T17:49:22.237Z,73.98
2018-12-08T17:51:50.854Z,73.61
2018-12-08T17:54:19.462Z,74.14
2018-12-08T17:56:48.114Z,74.48
2018-12-08T17:59:16.748Z,73.02
2018-12-08T18:01:45.377Z,73.46
2018-12-08T18:04:14.083Z,74.62
2018-12-08T18:06:42.747Z,75.39
2018-12-08T18:09:11.409Z,76.41
2018-12-08T18:11:40.089Z,76.42
2018-12-08T18:14:08.717Z,76.81
2018-12-08T18:16:37.559Z,76.99
2018-12-08T18:19:06.386Z,76.82
2018-12-08T18:21:35.064Z,76.14
2018-12-08T18:24:03.794Z,78.06
2018-12-08T18:26:32.494Z,78.01
2018-12-08T18:29:01.120Z,78.33
2018-12-08T18:31:29.793Z,77.80
2018-12-08T18:33:58.421Z,78.82
2018-12-08T18:36:27.057Z,79.59
2018-12-08T18:38:55.931Z,79.89
2018-12-08T18:41:24.670Z,79.04
2018-12-08T18:43:53.630Z,79.11
2018-12-08T18:46:22.283Z,79.03
2018-12-08T18:48:50.917Z,77.46
2018-12-08T18:51:19.610Z,78.54
2018-12-08T18:53:48.242Z,78.17
2018-12-08T18:56:16.975Z,77.74
2018-12-08T18:58:45.647Z,77.80
2018-12-08T19:01:14.997Z,78.86
2018-12-08T19:03:43.758Z,77.83
2018-12-08T19:06:13.345Z,78.25
2018-12-08T19:08:42.191Z,77.16
2018-12-08T19:11:10.814Z,79.79
2018-12-08T19:13:39.455Z,79.85
2018-12-08T19:16:08.050Z,78.56
2018-12-08T19:18:36.703Z,78.12
2018-12-08T19:21:05.659Z,78.15
2018-12-08T19:23:34.371Z,76.57
2018-12-08T19:26:03.025Z,76.19
2018-12-08T19:28:31.676Z,77.87
2018-12-08T19:31:00.374Z,77.34
2018-12-08T19:33:29.048Z,78.57
2018-12-08T19:35:58.247Z,79.44
2018-12-08T19:38:26.939Z,78.93
2018-12-08T19:40:55.568Z,79.12
2018-12-08T19:43:27.157Z,79.78
2018-12-08T19:45:55.754Z,79.90
2018-12-08T19:48:24.496Z,79.72
2018-12-08T19:50:53.354Z,80.12
2018-12-08T19:53:21.983Z,80.42
2018-12-08T19:55:50.723Z,80.53
2018-12-08T19:58:19.300Z,79.03
2018-12-08T20:00:47.970Z,78.56
2018-12-08T20:03:16.664Z,78.18
2018-12-08T20:05:45.357Z,78.38
2018-12-08T20:08:14.034Z,78.00
2018-12-08T20:10:42.673Z,78.60
2018-12-08T20:13:11.434Z,77.40
2018-12-08T20:15:40.070Z,78.45
2018-12-08T20:18:08.715Z,79.69
2018-12-08T20:20:37.788Z,78.37
2018-12-08T20:23:06.518Z,78.75
2018-12-08T20:25:35.147Z,77.75
2018-12-08T20:28:03.799Z,76.88
2018-12-08T20:30:32.474Z,77.67
2018-12-08T20:33:01.078Z,77.76
2018-12-08T20:35:29.853Z,77.87
2018-12-08T20:37:58.449Z,78.24
2018-12-08T20:40:27.133Z,78.69
2018-12-08T20:42:55.799Z,78.60
2018-12-08T20:45:24.395Z,79.59
2018-12-08T20:47:53.102Z,77.63
2018-12-08T20:50:21.702Z,77.25
2018-12-08T20:52:50.392Z,77.91
2018-12-08T20:55:18.983Z,76.40
2018-12-08T20:57:47.645Z,77.11
2018-12-08T21:00:16.413Z,78.50
2018-12-08T21:02:45.160Z,77.69
2018-12-08T21:05:13.903Z,77.25
2018-12-08T21:07:42.914Z,76.31
2018-12-08T21:10:11.563Z,78.04
2018-12-08T21:12:40.231Z,78.72
2018-12-08T21:15:09.020Z,78.05
2018-12-08T21:17:37.782Z,78.58
2018-12-08T21:20:09.183Z,79.11
2018-12-08T21:22:37.843Z,79.78
2018-12-08T21:25:06.646Z,80.28
2018-12-08T21:27:35.258Z,79.69
2018-12-08T21:32:38.242Z,80.17
2018-12-08T21:35:06.902Z,80.17
2018-12-08T21:37:35.471Z,79.24
2018-12-08T21:40:04.346Z,79.95
2018-12-08T21:42:32.965Z,79.92
2018-12-08T21:45:01.629Z,79.63
2018-12-08T21:47:30.415Z,80.40
2018-12-08T21:49:59.036Z,80.34
2018-12-08T21:52:27.669Z,79.56
2018-12-08T21:54:56.320Z,79.14
2018-12-08T21:57:25.513Z,79.33
2018-12-08T21:59:54.104Z,78.51
2018-12-08T22:02:22.937Z,78.24
2018-12-08T22:04:51.563Z,78.85
2018-12-08T22:07:20.219Z,79.05
2018-12-08T22:09:49.638Z,79.17
2018-12-08T22:12:18.242Z,78.30
2018-12-08T22:14:52.017Z,78.85
2018-12-08T22:17:20.724Z,78.89
2018-12-08T22:19:49.375Z,78.19
2018-12-08T22:22:18.064Z,79.12
2018-12-08T22:24:46.650Z,79.02
2018-12-08T22:27:15.254Z,78.27
2018-12-08T22:29:43.849Z,78.55
2018-12-08T22:32:12.524Z,79.55
2018-12-08T22:34:41.256Z,79.29
2018-12-08T22:37:09.929Z,80.07
2018-12-08T22:39:38.609Z,79.44
2018-12-08T22:42:07.260Z,78.17
2018-12-08T22:44:35.891Z,76.85
2018-12-08T22:47:04.542Z,77.88
2018-12-08T22:49:33.200Z,78.00
2018-12-08T22:52:02.002Z,78.05
2018-12-08T22:54:30.701Z,78.04
2018-12-08T22:56:59.375Z,78.44
2018-12-08T22:59:29.067Z,78.09
2018-12-08T23:01:57.681Z,78.79
2018-12-08T23:04:26.254Z,79.12
2018-12-08T23:07:05.775Z,79.61
2018-12-08T23:09:34.394Z,79.83
2018-12-08T23:12:03.037Z,80.55
2018-12-08T23:14:31.664Z,80.20
2018-12-08T23:17:00.424Z,80.63
2018-12-08T23:19:28.988Z,81.37
2018-12-08T23:21:57.642Z,80.98
2018-12-08T23:24:26.276Z,81.09
2018-12-08T23:26:54.873Z,81.38
2018-12-08T23:29:23.493Z,82.20
2018-12-08T23:31:52.135Z,81.30
2018-12-08T23:34:20.770Z,81.86
2018-12-08T23:36:49.417Z,81.66
2018-12-08T23:39:18.074Z,81.46
2018-12-08T23:41:46.814Z,81.24
2018-12-08T23:44:15.444Z,81.70
2018-12-08T23:46:44.081Z,82.08
2018-12-08T23:49:12.738Z,80.73
2018-12-08T23:51:41.406Z,80.91
2018-12-08T23:54:09.968Z,80.24
2018-12-08T23:56:38.637Z,80.22
2018-12-08T23:59:07.393Z,80.55
